createdAt,value
2023-02-24T00:01:13.942Z,8.84
2023-02-24T00:06:15.899Z,8.80
2023-02-24T00:11:19.263Z,8.80
2023-02-24T00:16:24.709Z,8.72
2023-02-24T00:21:28.574Z,8.70
2023-02-24T00:26:30.675Z,8.69
2023-02-24T00:31:39.667Z,8.59
2023-02-24T00:36:43.041Z,8.54
2023-02-24T00:41:45.697Z,8.49
2023-02-24T00:46:47.627Z,8.44
2023-02-24T00:51:49.965Z,8.38
2023-02-24T00:56:51.922Z,8.36
2023-02-24T01:01:54.962Z,8.32
2023-02-24T01:07:00.459Z,8.32
2023-02-24T01:12:38.452Z,8.34
2023-02-24T01:17:40.788Z,8.35
2023-02-24T01:22:51.286Z,8.31
2023-02-24T01:27:54.102Z,8.41
2023-02-24T01:32:57.934Z,8.49
2023-02-24T01:38:01.825Z,8.53
2023-02-24T01:43:09.057Z,8.59
2023-02-24T01:48:12.561Z,8.65
2023-02-24T01:53:15.429Z,8.74
2023-02-24T01:58:24.717Z,8.74
2023-02-24T02:03:31.451Z,8.76
2023-02-24T02:08:36.768Z,8.85
2023-02-24T02:13:44.797Z,8.91
2023-02-24T02:19:30.664Z,8.96
2023-02-24T02:24:44.098Z,8.94
2023-02-24T02:30:14.070Z,9.02
2023-02-24T02:35:37.095Z,9.03
2023-02-24T02:41:23.676Z,8.99
2023-02-24T02:46:46.795Z,8.97
2023-02-24T02:51:57.088Z,8.95
2023-02-24T02:57:20.545Z,8.90
2023-02-24T03:02:29.638Z,8.82
2023-02-24T03:07:37.698Z,8.66
2023-02-24T03:12:42.485Z,8.56
2023-02-24T03:17:46.622Z,8.47
2023-02-24T03:22:59.208Z,8.43
2023-02-24T03:28:11.540Z,8.38
2023-02-24T03:33:19.996Z,8.32
2023-02-24T03:38:24.563Z,8.24
2023-02-24T03:43:31.981Z,8.15
2023-02-24T03:48:40.672Z,8.10
2023-02-24T03:54:00.515Z,8.10
2023-02-24T03:59:18.720Z,8.06
2023-02-24T04:04:40.861Z,7.98
2023-02-24T04:10:21.167Z,8.00
2023-02-24T04:15:35.600Z,8.05
2023-02-24T04:20:40.036Z,8.06
2023-02-24T04:25:49.202Z,8.07
2023-02-24T04:30:58.618Z,8.07
2023-02-24T04:36:01.568Z,8.03
2023-02-24T04:41:07.632Z,8.03
2023-02-24T04:46:13.461Z,7.95
2023-02-24T04:51:15.787Z,7.94
2023-02-24T04:56:18.805Z,7.94
2023-02-24T05:01:21.172Z,7.95
2023-02-24T05:06:23.827Z,7.96
2023-02-24T05:11:35.464Z,7.94
2023-02-24T05:16:38.507Z,7.92
2023-02-24T05:21:41.817Z,7.91
2023-02-24T05:26:43.792Z,7.90
2023-02-24T05:31:46.918Z,7.86
2023-02-24T05:36:49.621Z,7.94
2023-02-24T05:41:54.733Z,7.95
2023-02-24T05:47:00.847Z,7.97
2023-02-24T05:52:09.765Z,7.96
2023-02-24T05:57:17.067Z,8.03
2023-02-24T06:02:27.639Z,8.05
2023-02-24T06:07:35.014Z,8.05
2023-02-24T06:12:40.054Z,8.07
2023-02-24T06:17:42.666Z,7.97
2023-02-24T06:22:44.812Z,7.90
2023-02-24T06:27:53.180Z,7.94
2023-02-24T06:32:56.865Z,7.87
2023-02-24T06:37:59.513Z,7.87
2023-02-24T06:43:02.945Z,7.87
2023-02-24T06:48:07.897Z,7.85
2023-02-24T06:53:17.028Z,7.78
2023-02-24T06:58:20.850Z,7.80
2023-02-24T07:03:40.851Z,7.85
2023-02-24T07:08:44.227Z,7.84
2023-02-24T07:13:48.016Z,7.83
2023-02-24T07:18:54.386Z,7.88
2023-02-24T07:23:59.119Z,8.00
2023-02-24T07:29:06.461Z,8.07
2023-02-24T07:34:08.513Z,8.16
2023-02-24T07:39:11.847Z,8.30
2023-02-24T07:44:16.664Z,8.43
2023-02-24T07:49:29.929Z,8.58
2023-02-24T07:54:33.257Z,8.68
2023-02-24T07:59:38.152Z,8.80
2023-02-24T08:04:44.425Z,8.79
2023-02-24T08:10:13.939Z,8.77
2023-02-24T08:15:24.096Z,8.71
2023-02-24T08:20:36.184Z,8.73
2023-02-24T08:25:44.629Z,8.64
2023-02-24T08:30:50.513Z,8.66
2023-02-24T08:36:02.375Z,8.73
2023-02-24T08:41:17.843Z,8.81
2023-02-24T08:46:26.736Z,8.84
2023-02-24T08:51:35.555Z,8.78
2023-02-24T08:56:43.425Z,8.83
2023-02-24T09:02:04.320Z,8.84
2023-02-24T09:07:15.369Z,8.86
2023-02-24T09:12:24.969Z,8.95
2023-02-24T09:17:45.834Z,9.05
2023-02-24T09:23:04.167Z,9.12
2023-02-24T09:28:19.925Z,9.28
2023-02-24T09:33:27.788Z,9.58
2023-02-24T09:38:52.140Z,9.85
2023-02-24T09:44:18.305Z,10.07
2023-02-24T09:49:26.885Z,10.19
2023-02-24T09:54:35.418Z,10.22
2023-02-24T10:00:22.831Z,10.40
2023-02-24T10:05:49.500Z,10.55
2023-02-24T10:11:22.801Z,10.76
2023-02-24T10:16:25.770Z,10.87
2023-02-24T10:21:49.855Z,10.90
2023-02-24T10:27:16.400Z,10.97
2023-02-24T10:33:01.570Z,11.20
2023-02-24T10:38:07.047Z,11.47
2023-02-24T10:43:20.069Z,11.84
2023-02-24T10:48:43.349Z,12.24
2023-02-24T10:54:28.926Z,12.26
2023-02-24T11:00:32.773Z,12.14
2023-02-24T11:06:02.199Z,12.22
2023-02-24T11:11:20.201Z,12.07
2023-02-24T11:16:51.566Z,12.02
2023-02-24T11:21:56.298Z,12.18
2023-02-24T11:26:59.225Z,12.18
2023-02-24T11:32:23.344Z,12.03
2023-02-24T11:37:41.875Z,12.12
2023-02-24T11:43:18.570Z,12.29
2023-02-24T11:48:57.010Z,12.23
2023-02-24T11:54:39.318Z,12.09
2023-02-24T12:00:05.427Z,11.96
2023-02-24T12:05:18.753Z,11.88
2023-02-24T12:10:49.021Z,11.73
2023-02-24T12:16:10.958Z,11.67
2023-02-24T12:21:41.972Z,11.53
2023-02-24T12:27:15.526Z,11.33
2023-02-24T12:32:47.047Z,11.30
2023-02-24T12:38:30.556Z,11.33
2023-02-24T12:43:46.159Z,11.35
2023-02-24T12:49:32.421Z,11.24
2023-02-24T12:55:19.031Z,11.25
2023-02-24T13:00:32.180Z,11.38
2023-02-24T13:05:59.656Z,11.54
2023-02-24T13:11:16.444Z,11.68
2023-02-24T13:16:34.307Z,11.68
2023-02-24T13:21:42.753Z,11.60
2023-02-24T13:26:57.419Z,11.59
2023-02-24T13:32:00.887Z,11.49
2023-02-24T13:37:04.350Z,11.44
2023-02-24T13:42:30.868Z,11.40
2023-02-24T13:47:51.594Z,11.37
2023-02-24T13:53:58.908Z,11.23
2023-02-24T14:00:01.711Z,10.92
2023-02-24T14:05:25.522Z,10.71
2023-02-24T14:10:31.438Z,10.71
2023-02-24T14:15:53.378Z,10.77
2023-02-24T14:20:58.942Z,10.74
2023-02-24T14:26:23.357Z,10.83
2023-02-24T14:31:28.343Z,11.01
2023-02-24T14:36:38.188Z,11.10
2023-02-24T14:41:41.478Z,11.22
2023-02-24T14:46:55.660Z,11.46
2023-02-24T14:52:18.533Z,11.48
2023-02-24T14:57:26.746Z,11.50
2023-02-24T15:02:33.561Z,11.42
2023-02-24T15:07:37.473Z,11.31
2023-02-24T15:12:49.513Z,11.15
2023-02-24T15:17:56.374Z,10.98
2023-02-24T15:22:59.106Z,10.79
2023-02-24T15:28:03.921Z,10.69
2023-02-24T15:33:14.764Z,10.54
2023-02-24T15:38:30.781Z,10.45
2023-02-24T15:43:53.006Z,10.36
2023-02-24T15:48:57.642Z,10.36
2023-02-24T15:54:06.340Z,10.34
2023-02-24T15:59:14.654Z,10.32
2023-02-24T16:04:23.752Z,10.28
2023-02-24T16:09:37.337Z,10.23
2023-02-24T16:14:42.435Z,10.21
2023-02-24T16:19:48.237Z,10.19
2023-02-24T16:24:56.413Z,10.28
2023-02-24T16:30:23.032Z,10.31
2023-02-24T16:35:28.292Z,10.14
2023-02-24T16:40:38.709Z,9.96
2023-02-24T16:45:46.096Z,9.79
2023-02-24T16:50:49.318Z,9.51
2023-02-24T16:55:52.181Z,9.24
2023-02-24T17:01:02.706Z,8.94
2023-02-24T17:06:06.000Z,8.89
2023-02-24T17:11:14.439Z,8.78
2023-02-24T17:16:16.842Z,8.64
2023-02-24T17:21:20.664Z,8.48
2023-02-24T17:26:23.994Z,8.34
2023-02-24T17:31:31.753Z,8.24
2023-02-24T17:36:35.636Z,8.25
2023-02-24T17:41:47.116Z,8.28
2023-02-24T17:46:49.949Z,8.30
2023-02-24T17:51:52.536Z,8.31
2023-02-24T17:56:54.605Z,8.34
2023-02-24T18:02:00.069Z,8.36
2023-02-24T18:07:05.477Z,8.32
2023-02-24T18:12:14.487Z,8.32
2023-02-24T18:17:17.676Z,8.39
2023-02-24T18:22:21.628Z,8.48
2023-02-24T18:27:29.172Z,8.47
2023-02-24T18:32:32.058Z,8.46
2023-02-24T18:37:34.431Z,8.46
2023-02-24T18:42:41.529Z,8.48
2023-02-24T18:47:43.625Z,8.51
2023-02-24T18:52:45.791Z,8.55
2023-02-24T18:57:48.585Z,8.57
2023-02-24T19:02:51.126Z,8.58
2023-02-24T19:07:53.629Z,8.56
2023-02-24T19:12:57.013Z,8.57
2023-02-24T19:18:02.540Z,8.59
2023-02-24T19:23:06.195Z,8.60
2023-02-24T19:28:08.614Z,8.64
2023-02-24T19:33:18.695Z,8.64
2023-02-24T19:38:22.595Z,8.65
2023-02-24T19:43:25.017Z,8.67
2023-02-24T19:48:27.507Z,8.68
2023-02-24T19:53:30.563Z,8.68
2023-02-24T19:58:35.901Z,8.67
2023-02-24T20:03:40.689Z,8.63
2023-02-24T20:08:42.988Z,8.64
2023-02-24T20:13:45.949Z,8.65
2023-02-24T20:18:48.849Z,8.60
2023-02-24T20:23:54.861Z,8.58
2023-02-24T20:29:01.067Z,8.60
2023-02-24T20:34:10.723Z,8.60
2023-02-24T20:39:15.516Z,8.63
2023-02-24T20:44:18.096Z,8.62
2023-02-24T20:49:20.509Z,8.65
2023-02-24T20:54:23.974Z,8.80
2023-02-24T20:59:26.752Z,8.89
2023-02-24T21:04:29.123Z,8.81
2023-02-24T21:09:37.289Z,8.80
2023-02-24T21:14:39.651Z,8.74
2023-02-24T21:19:43.244Z,8.72
2023-02-24T21:24:45.395Z,8.71
2023-02-24T21:29:55.177Z,8.74
2023-02-24T21:35:00.231Z,8.73
2023-02-24T21:40:11.211Z,8.72
2023-02-24T21:45:14.141Z,8.68
2023-02-24T21:50:18.112Z,8.58
2023-02-24T21:55:26.491Z,8.46
2023-02-24T22:00:30.344Z,8.39
2023-02-24T22:05:35.874Z,8.35
2023-02-24T22:10:40.784Z,8.36
2023-02-24T22:15:44.308Z,8.44
2023-02-24T22:20:48.026Z,8.58
2023-02-24T22:25:50.503Z,8.67
2023-02-24T22:30:57.682Z,8.66
2023-02-24T22:36:05.759Z,8.56
2023-02-24T22:41:14.593Z,8.50
2023-02-24T22:46:22.022Z,8.48
2023-02-24T22:51:32.895Z,8.51
2023-02-24T22:56:36.117Z,8.53
2023-02-24T23:01:39.744Z,8.53
2023-02-24T23:06:42.830Z,8.52
2023-02-24T23:11:46.938Z,8.56
2023-02-24T23:17:01.510Z,8.50
2023-02-24T23:22:10.970Z,8.43
2023-02-24T23:27:13.628Z,8.26
2023-02-24T23:32:16.892Z,8.01
2023-02-24T23:37:21.104Z,7.86
2023-02-24T23:42:24.225Z,7.72
2023-02-24T23:47:30.709Z,7.67
2023-02-24T23:52:34.198Z,7.65
2023-02-24T23:57:37.628Z,7.63
